createdAt,value
2022-08-07T00:01:44.704Z,20.13
2022-08-07T00:04:06.772Z,20.12
2022-08-07T00:06:36.933Z,20.10
2022-08-07T00:09:16.684Z,20.20
2022-08-07T00:11:53.956Z,20.18
2022-08-07T00:14:25.569Z,20.25
2022-08-07T00:17:02.174Z,20.27
2022-08-07T00:20:01.649Z,20.27
2022-08-07T00:22:24.649Z,20.38
2022-08-07T00:25:05.189Z,20.40
2022-08-07T00:27:51.791Z,20.36
2022-08-07T00:30:26.300Z,20.34
2022-08-07T00:32:58.905Z,20.28
2022-08-07T00:35:27.536Z,20.18
2022-08-07T00:37:58.653Z,20.25
2022-08-07T00:40:39.940Z,20.25
2022-08-07T00:43:12.819Z,20.20
2022-08-07T00:45:58.334Z,20.17
2022-08-07T00:48:32.232Z,20.08
2022-08-07T00:51:00.559Z,20.19
2022-08-07T00:53:38.493Z,20.13
2022-08-07T00:56:15.879Z,20.04
2022-08-07T00:58:46.798Z,20.08
2022-08-07T01:01:18.329Z,19.92
2022-08-07T01:03:56.734Z,19.86
2022-08-07T01:06:30.489Z,19.93
2022-08-07T01:09:03.133Z,19.81
2022-08-07T01:12:23.406Z,19.88
2022-08-07T01:14:21.270Z,19.94
2022-08-07T01:16:55.962Z,20.01
2022-08-07T01:19:23.677Z,20.01
2022-08-07T01:21:53.387Z,19.98
2022-08-07T01:24:23.482Z,20.16
2022-08-07T01:26:52.425Z,20.14
2022-08-07T01:29:27.900Z,20.05
2022-08-07T01:31:56.073Z,20.02
2022-08-07T01:34:31.610Z,20.00
2022-08-07T01:37:00.600Z,19.91
2022-08-07T01:39:41.429Z,19.92
2022-08-07T01:42:39.810Z,19.86
2022-08-07T01:45:05.436Z,19.94
2022-08-07T01:48:20.741Z,20.06
2022-08-07T01:50:31.464Z,20.11
2022-08-07T01:53:00.490Z,20.12
2022-08-07T01:55:34.935Z,20.17
2022-08-07T01:58:06.355Z,20.11
2022-08-07T02:01:09.316Z,20.06
2022-08-07T02:03:48.766Z,20.19
2022-08-07T02:06:31.604Z,20.22
2022-08-07T02:09:04.272Z,20.23
2022-08-07T02:12:02.956Z,20.16
2022-08-07T02:14:40.321Z,20.24
2022-08-07T02:17:11.005Z,20.36
2022-08-07T02:20:06.650Z,20.28
2022-08-07T02:22:30.376Z,20.22
2022-08-07T02:24:58.977Z,20.11
2022-08-07T02:27:34.441Z,20.05
2022-08-07T02:30:07.416Z,20.13
2022-08-07T02:32:39.604Z,20.26
2022-08-07T02:36:29.538Z,20.21
2022-08-07T02:38:15.625Z,20.07
2022-08-07T02:40:44.532Z,20.07
2022-08-07T02:43:15.740Z,20.12
2022-08-07T02:45:58.028Z,20.08
2022-08-07T02:48:27.075Z,20.14
2022-08-07T02:50:57.733Z,20.18
2022-08-07T02:53:29.458Z,20.21
2022-08-07T02:56:03.352Z,20.26
2022-08-07T02:58:34.159Z,20.24
2022-08-07T03:01:03.286Z,20.27
2022-08-07T03:03:49.156Z,20.40
2022-08-07T03:06:25.813Z,20.39
2022-08-07T03:09:02.641Z,20.38
2022-08-07T03:11:32.989Z,20.30
2022-08-07T03:14:07.067Z,20.10
2022-08-07T03:16:35.687Z,20.04
2022-08-07T03:19:03.207Z,20.04
2022-08-07T03:21:33.169Z,20.03
2022-08-07T03:24:17.833Z,20.03
2022-08-07T03:26:58.358Z,19.90
2022-08-07T03:29:36.747Z,19.50
2022-08-07T03:32:13.113Z,19.10
2022-08-07T03:34:47.155Z,18.85
2022-08-07T03:37:46.470Z,18.59
2022-08-07T03:40:22.212Z,18.39
2022-08-07T03:42:51.151Z,18.50
2022-08-07T03:45:29.838Z,18.60
2022-08-07T03:48:00.419Z,18.45
2022-08-07T03:50:29.005Z,18.43
2022-08-07T03:52:59.766Z,18.33
2022-08-07T03:55:57.742Z,18.29
2022-08-07T03:59:05.452Z,18.52
2022-08-07T04:01:07.602Z,18.63
2022-08-07T04:03:53.265Z,18.45
2022-08-07T04:06:38.067Z,18.33
2022-08-07T04:09:15.329Z,18.28
2022-08-07T04:12:24.346Z,18.29
2022-08-07T04:14:37.877Z,18.50
2022-08-07T04:18:11.223Z,18.68
2022-08-07T04:19:55.274Z,18.71
2022-08-07T04:22:29.163Z,18.64
2022-08-07T04:24:58.550Z,18.66
2022-08-07T04:27:26.709Z,18.64
2022-08-07T04:29:58.862Z,18.59
2022-08-07T04:32:34.314Z,18.49
2022-08-07T04:35:05.778Z,18.36
2022-08-07T04:38:00.823Z,18.31
2022-08-07T04:40:26.720Z,18.18
2022-08-07T04:43:01.963Z,18.13
2022-08-07T04:45:57.406Z,18.25
2022-08-07T04:48:57.744Z,18.23
2022-08-07T04:51:37.567Z,18.37
2022-08-07T04:54:30.181Z,18.40
2022-08-07T04:58:15.219Z,18.43
2022-08-07T05:00:12.490Z,18.51
2022-08-07T05:02:55.591Z,18.56
2022-08-07T05:05:52.561Z,18.61
2022-08-07T05:08:59.915Z,18.68
2022-08-07T05:11:58.806Z,18.79
2022-08-07T05:14:55.214Z,18.92
2022-08-07T05:17:51.775Z,19.05
2022-08-07T05:20:09.211Z,18.99
2022-08-07T05:22:38.461Z,19.04
2022-08-07T05:25:11.847Z,19.15
2022-08-07T05:28:03.576Z,19.17
2022-08-07T05:30:42.787Z,19.02
2022-08-07T05:33:11.906Z,19.08
2022-08-07T05:35:42.176Z,19.20
2022-08-07T05:38:10.856Z,19.26
2022-08-07T05:40:50.426Z,19.35
2022-08-07T05:43:49.851Z,19.40
2022-08-07T05:46:08.005Z,19.28
2022-08-07T05:48:35.634Z,19.16
2022-08-07T05:51:23.359Z,19.27
2022-08-07T05:54:12.341Z,19.40
2022-08-07T05:56:40.470Z,19.49
2022-08-07T05:59:13.930Z,19.38
2022-08-07T06:01:42.272Z,19.44
2022-08-07T06:04:10.840Z,19.57
2022-08-07T06:06:38.891Z,19.71
2022-08-07T06:09:15.469Z,19.85
2022-08-07T06:11:44.565Z,20.02
2022-08-07T06:14:21.012Z,20.28
2022-08-07T06:16:50.438Z,20.44
2022-08-07T06:19:51.752Z,20.60
2022-08-07T06:22:22.865Z,20.79
2022-08-07T06:24:57.930Z,21.08
2022-08-07T06:28:00.456Z,21.26
2022-08-07T06:30:32.249Z,21.22
2022-08-07T06:33:02.306Z,21.31
2022-08-07T06:35:38.996Z,21.51
2022-08-07T06:38:20.642Z,21.54
2022-08-07T06:40:53.365Z,21.61
2022-08-07T06:43:23.782Z,21.64
2022-08-07T06:46:00.098Z,21.65
2022-08-07T06:48:28.785Z,21.64
2022-08-07T06:50:59.473Z,21.74
2022-08-07T06:55:30.202Z,21.86
2022-08-07T06:56:49.809Z,21.86
2022-08-07T07:00:13.373Z,21.83
2022-08-07T07:02:48.596Z,21.82
2022-08-07T07:05:06.710Z,21.81
2022-08-07T07:07:59.441Z,21.65
2022-08-07T07:10:29.199Z,21.54
2022-08-07T07:13:13.179Z,21.27
2022-08-07T07:15:51.751Z,20.83
2022-08-07T07:18:47.023Z,20.48
2022-08-07T07:21:27.195Z,20.34
2022-08-07T07:24:17.313Z,20.35
2022-08-07T07:26:51.653Z,20.26
2022-08-07T07:29:38.896Z,20.37
2022-08-07T07:32:12.477Z,20.64
2022-08-07T07:34:46.089Z,21.10
2022-08-07T07:37:45.438Z,21.46
2022-08-07T07:40:14.972Z,21.82
2022-08-07T07:42:54.179Z,22.20
2022-08-07T07:46:37.765Z,22.41
2022-08-07T07:48:34.746Z,22.63
2022-08-07T07:51:07.969Z,22.87
2022-08-07T07:53:51.899Z,23.13
2022-08-07T07:56:29.928Z,23.32
2022-08-07T07:59:03.568Z,23.54
2022-08-07T08:02:03.513Z,23.85
2022-08-07T08:04:25.508Z,24.06
2022-08-07T08:06:53.499Z,24.35
2022-08-07T08:09:23.401Z,24.54
2022-08-07T08:12:02.413Z,24.64
2022-08-07T08:14:36.083Z,24.59
2022-08-07T08:17:14.209Z,24.69
2022-08-07T08:20:18.169Z,25.02
2022-08-07T08:23:08.173Z,25.22
2022-08-07T08:25:56.227Z,25.32
2022-08-07T08:28:37.768Z,25.23
2022-08-07T08:31:15.579Z,25.32
2022-08-07T08:33:49.836Z,25.50
2022-08-07T08:36:29.694Z,25.49
2022-08-07T08:39:01.707Z,25.46
2022-08-07T08:41:57.819Z,25.34
2022-08-07T08:44:44.552Z,25.35
2022-08-07T08:47:47.446Z,25.41
2022-08-07T08:50:35.250Z,25.34
2022-08-07T08:53:14.544Z,25.36
2022-08-07T08:55:55.047Z,25.37
2022-08-07T08:58:29.489Z,25.52
2022-08-07T09:01:15.402Z,25.79
2022-08-07T09:04:07.896Z,26.17
2022-08-07T09:07:02.376Z,26.47
2022-08-07T09:09:56.813Z,26.48
2022-08-07T09:12:54.436Z,26.52
2022-08-07T09:16:23.195Z,26.80
2022-08-07T09:18:35.149Z,27.10
2022-08-07T09:21:06.189Z,27.53
2022-08-07T09:24:30.452Z,27.95
2022-08-07T09:27:09.191Z,28.25
2022-08-07T09:30:03.834Z,28.51
2022-08-07T09:32:49.148Z,29.02
2022-08-07T09:36:03.281Z,29.57
2022-08-07T09:38:43.806Z,29.73
2022-08-07T09:41:27.821Z,30.25
2022-08-07T09:44:40.238Z,30.49
2022-08-07T09:47:56.088Z,30.96
2022-08-07T09:50:45.375Z,31.42
2022-08-07T09:53:14.908Z,31.84
2022-08-07T09:56:03.341Z,31.89
2022-08-07T09:59:01.548Z,32.11
2022-08-07T10:01:52.185Z,32.20
2022-08-07T10:04:52.804Z,32.29
2022-08-07T10:07:52.434Z,32.51
2022-08-07T10:10:28.570Z,32.65
2022-08-07T10:13:55.486Z,32.78
2022-08-07T10:16:12.335Z,32.96
2022-08-07T10:18:57.891Z,33.03
2022-08-07T10:22:14.198Z,32.96
2022-08-07T10:24:33.467Z,32.83
2022-08-07T10:27:46.461Z,32.96
2022-08-07T10:30:28.139Z,32.61
2022-08-07T10:33:08.527Z,32.39
2022-08-07T10:36:18.271Z,32.42
2022-08-07T10:39:19.413Z,32.22
2022-08-07T10:42:01.635Z,32.32
2022-08-07T10:44:51.726Z,32.38
2022-08-07T10:47:53.241Z,32.55
2022-08-07T10:50:44.791Z,32.71
2022-08-07T10:53:44.848Z,32.62
2022-08-07T10:56:31.646Z,32.76
2022-08-07T10:59:15.633Z,33.00
2022-08-07T11:02:33.562Z,33.40
2022-08-07T11:05:35.942Z,33.98
2022-08-07T11:08:22.467Z,34.31
2022-08-07T11:11:20.926Z,34.26
2022-08-07T11:14:44.103Z,33.56
2022-08-07T11:17:07.419Z,33.52
2022-08-07T11:19:53.570Z,33.61
2022-08-07T11:22:38.263Z,33.32
2022-08-07T11:25:19.787Z,32.86
2022-08-07T11:28:27.844Z,33.08
2022-08-07T11:31:11.457Z,33.20
2022-08-07T11:33:58.593Z,33.11
2022-08-07T11:36:38.834Z,32.78
2022-08-07T11:39:58.994Z,32.51
2022-08-07T11:42:29.946Z,32.41
2022-08-07T11:45:07.654Z,32.33
2022-08-07T11:47:58.845Z,32.38
2022-08-07T11:50:35.574Z,32.39
2022-08-07T11:53:35.264Z,32.49
2022-08-07T11:56:28.408Z,32.42
2022-08-07T11:58:58.907Z,32.27
2022-08-07T12:02:21.038Z,32.19
2022-08-07T12:05:28.826Z,32.06
2022-08-07T12:08:31.806Z,32.54
2022-08-07T12:11:21.088Z,33.32
2022-08-07T12:14:05.307Z,33.71
2022-08-07T12:16:36.840Z,33.97
2022-08-07T12:19:21.412Z,34.09
2022-08-07T12:22:37.310Z,34.19
2022-08-07T12:26:03.499Z,34.69
2022-08-07T12:28:34.683Z,34.87
2022-08-07T12:31:11.010Z,35.54
2022-08-07T12:34:00.759Z,34.78
2022-08-07T12:36:33.049Z,34.64
2022-08-07T12:39:42.031Z,35.16
2022-08-07T12:41:52.663Z,35.68
2022-08-07T12:44:24.568Z,36.19
2022-08-07T12:47:06.337Z,35.96
2022-08-07T12:49:48.847Z,35.16
2022-08-07T12:52:41.766Z,35.41
2022-08-07T12:55:40.615Z,35.80
2022-08-07T12:58:13.237Z,36.33
2022-08-07T13:01:00.213Z,36.88
2022-08-07T13:04:02.431Z,37.32
2022-08-07T13:06:27.858Z,37.54
2022-08-07T13:10:20.427Z,37.63
2022-08-07T13:12:28.763Z,37.65
2022-08-07T13:15:32.563Z,37.56
2022-08-07T13:18:31.792Z,37.80
2022-08-07T13:21:37.774Z,38.00
2022-08-07T13:24:29.440Z,38.00
2022-08-07T13:27:10.344Z,38.42
2022-08-07T13:29:56.941Z,38.35
2022-08-07T13:32:32.850Z,37.79
2022-08-07T13:36:00.448Z,37.27
2022-08-07T13:38:23.873Z,37.30
2022-08-07T13:41:22.592Z,37.18
2022-08-07T13:43:52.810Z,37.09
2022-08-07T13:46:32.884Z,36.75
2022-08-07T13:49:02.196Z,36.35
2022-08-07T13:52:22.634Z,36.33
2022-08-07T13:54:22.509Z,36.63
2022-08-07T13:56:55.847Z,36.67
2022-08-07T13:59:32.352Z,36.67
2022-08-07T14:02:08.684Z,36.93
2022-08-07T14:04:49.592Z,37.34
2022-08-07T14:07:28.713Z,37.67
2022-08-07T14:10:17.623Z,37.39
2022-08-07T14:12:57.431Z,36.62
2022-08-07T14:15:31.895Z,36.48
2022-08-07T14:18:27.531Z,36.41
2022-08-07T14:22:02.283Z,36.08
2022-08-07T14:24:36.680Z,35.81
2022-08-07T14:28:09.711Z,35.71
2022-08-07T14:30:10.982Z,35.56
2022-08-07T14:32:55.887Z,35.57
2022-08-07T14:35:43.387Z,35.16
2022-08-07T14:38:30.813Z,35.26
2022-08-07T14:41:05.398Z,35.58
2022-08-07T14:43:57.179Z,35.87
2022-08-07T14:46:31.516Z,35.94
2022-08-07T14:49:17.461Z,36.16
2022-08-07T14:52:04.865Z,36.17
2022-08-07T14:54:41.984Z,35.92
2022-08-07T14:57:19.227Z,35.73
2022-08-07T15:00:06.955Z,35.71
2022-08-07T15:02:37.334Z,35.15
2022-08-07T15:05:20.068Z,34.56
2022-08-07T15:07:51.155Z,34.46
2022-08-07T15:10:26.089Z,34.53
2022-08-07T15:13:00.184Z,34.49
2022-08-07T15:18:36.212Z,34.38
2022-08-07T15:21:44.407Z,34.27
2022-08-07T15:27:22.094Z,34.00
2022-08-07T15:30:16.888Z,34.00
2022-08-07T15:33:01.376Z,33.92
2022-08-07T15:36:00.760Z,33.87
2022-08-07T15:42:44.857Z,33.49
2022-08-07T15:44:15.074Z,33.18
2022-08-07T15:46:49.980Z,33.09
2022-08-07T15:50:05.175Z,33.11
2022-08-07T15:52:21.903Z,33.14
2022-08-07T15:55:02.305Z,33.02
2022-08-07T15:57:48.172Z,32.89
2022-08-07T16:00:31.133Z,32.71
2022-08-07T16:03:21.825Z,32.53
2022-08-07T16:06:05.825Z,32.50
2022-08-07T16:08:38.717Z,32.57
2022-08-07T16:11:17.431Z,32.44
2022-08-07T16:14:20.587Z,32.32
2022-08-07T16:16:56.711Z,32.16
2022-08-07T16:19:58.841Z,32.06
2022-08-07T16:22:54.927Z,32.01
2022-08-07T16:25:54.324Z,31.93
2022-08-07T16:30:06.257Z,31.78
2022-08-07T16:31:51.668Z,31.62
2022-08-07T16:34:48.097Z,31.42
2022-08-07T16:38:06.628Z,31.21
2022-08-07T16:40:35.208Z,30.99
2022-08-07T16:43:21.843Z,30.78
2022-08-07T16:47:06.730Z,30.64
2022-08-07T16:50:27.837Z,30.52
2022-08-07T16:53:02.415Z,30.25
2022-08-07T16:55:50.497Z,30.02
2022-08-07T16:59:11.385Z,29.87
2022-08-07T17:01:49.841Z,29.69
2022-08-07T17:04:27.738Z,29.63
2022-08-07T17:07:13.488Z,29.52
2022-08-07T17:10:07.970Z,29.31
2022-08-07T17:12:44.583Z,29.10
2022-08-07T17:15:15.673Z,29.01
2022-08-07T17:17:49.085Z,28.88
2022-08-07T17:20:30.104Z,28.79
2022-08-07T17:23:11.549Z,28.63
2022-08-07T17:25:58.854Z,28.48
2022-08-07T17:28:55.566Z,28.36
2022-08-07T17:31:25.416Z,28.27
2022-08-07T17:34:15.333Z,28.19
2022-08-07T17:37:08.937Z,28.08
2022-08-07T17:40:13.479Z,27.93
2022-08-07T17:42:59.143Z,27.83
2022-08-07T17:45:40.181Z,27.73
2022-08-07T17:48:30.756Z,27.65
2022-08-07T17:51:04.790Z,27.59
2022-08-07T17:54:01.516Z,27.55
2022-08-07T17:56:33.164Z,27.53
2022-08-07T17:59:35.674Z,27.47
2022-08-07T18:02:29.286Z,27.42
2022-08-07T18:05:20.598Z,27.35
2022-08-07T18:08:24.483Z,27.30
2022-08-07T18:11:53.552Z,27.26
2022-08-07T18:14:16.678Z,27.20
2022-08-07T18:16:58.203Z,27.15
2022-08-07T18:21:04.366Z,27.08
2022-08-07T18:22:30.541Z,27.03
2022-08-07T18:25:23.780Z,26.98
2022-08-07T18:28:34.219Z,26.93
2022-08-07T18:31:07.457Z,26.88
2022-08-07T18:33:55.446Z,26.80
2022-08-07T18:36:38.591Z,26.75
2022-08-07T18:40:08.770Z,26.77
2022-08-07T18:42:37.375Z,26.62
2022-08-07T18:45:44.874Z,26.47
2022-08-07T18:48:05.868Z,26.35
2022-08-07T18:50:47.357Z,26.10
2022-08-07T18:53:36.526Z,26.00
2022-08-07T18:56:30.710Z,25.86
2022-08-07T18:59:47.276Z,25.74
2022-08-07T19:02:55.545Z,25.63
2022-08-07T19:05:27.890Z,25.69
2022-08-07T19:08:27.389Z,25.60
2022-08-07T19:11:02.552Z,25.55
2022-08-07T19:13:52.621Z,25.52
2022-08-07T19:16:43.701Z,25.48
2022-08-07T19:20:07.093Z,25.56
2022-08-07T19:23:01.961Z,25.52
2022-08-07T19:26:23.262Z,25.50
2022-08-07T19:30:57.802Z,25.45
2022-08-07T19:32:10.832Z,25.40
2022-08-07T19:34:34.363Z,25.39
2022-08-07T19:37:17.270Z,25.30
2022-08-07T19:39:56.816Z,25.26
2022-08-07T19:42:26.808Z,25.16
2022-08-07T19:45:00.731Z,25.07
2022-08-07T19:47:38.662Z,25.01
2022-08-07T19:50:41.162Z,24.93
2022-08-07T19:52:58.369Z,24.94
2022-08-07T19:55:46.807Z,24.84
2022-08-07T19:58:22.154Z,24.69
2022-08-07T20:00:57.414Z,24.58
2022-08-07T20:03:33.741Z,24.61
2022-08-07T20:06:04.556Z,24.52
2022-08-07T20:08:36.830Z,24.44
2022-08-07T20:11:12.274Z,24.35
2022-08-07T20:13:47.955Z,24.33
2022-08-07T20:16:34.801Z,24.23
2022-08-07T20:19:10.340Z,24.11
2022-08-07T20:21:41.679Z,24.06
2022-08-07T20:24:28.926Z,24.06
2022-08-07T20:27:03.487Z,24.01
2022-08-07T20:29:49.268Z,23.91
2022-08-07T20:32:26.707Z,23.89
2022-08-07T20:35:26.243Z,23.76
2022-08-07T20:37:58.282Z,23.71
2022-08-07T20:40:34.758Z,23.68
2022-08-07T20:43:14.430Z,23.66
2022-08-07T20:46:28.293Z,23.57
2022-08-07T20:48:34.615Z,23.49
2022-08-07T20:51:09.550Z,23.41
2022-08-07T20:54:02.212Z,23.35
2022-08-07T20:56:29.206Z,23.23
2022-08-07T20:59:01.757Z,23.08
2022-08-07T21:01:45.535Z,23.04
2022-08-07T21:04:22.550Z,23.05
2022-08-07T21:06:55.326Z,22.99
2022-08-07T21:09:30.494Z,22.96
2022-08-07T21:12:25.669Z,22.85
2022-08-07T21:14:56.573Z,22.75
2022-08-07T21:18:20.296Z,22.73
2022-08-07T21:20:26.846Z,22.69
2022-08-07T21:22:58.456Z,22.60
2022-08-07T21:25:44.774Z,22.54
2022-08-07T21:28:48.786Z,22.50
2022-08-07T21:31:49.877Z,22.36
2022-08-07T21:35:02.389Z,22.23
2022-08-07T21:37:58.864Z,22.12
2022-08-07T21:40:38.084Z,22.13
2022-08-07T21:43:10.830Z,22.18
2022-08-07T21:46:07.959Z,22.03
2022-08-07T21:48:55.719Z,21.98
2022-08-07T21:51:54.557Z,21.94
2022-08-07T21:54:27.986Z,21.95
2022-08-07T21:57:40.127Z,21.97
2022-08-07T22:00:22.977Z,21.97
2022-08-07T22:02:55.095Z,21.95
2022-08-07T22:05:45.807Z,21.92
2022-08-07T22:08:14.599Z,21.86
2022-08-07T22:10:50.205Z,21.88
2022-08-07T22:13:24.167Z,21.80
2022-08-07T22:16:40.235Z,21.76
2022-08-07T22:19:08.842Z,21.79
2022-08-07T22:22:05.023Z,21.75
2022-08-07T22:24:57.427Z,21.71
2022-08-07T22:28:07.391Z,21.63
2022-08-07T22:30:35.085Z,21.55
2022-08-07T22:33:07.486Z,21.52
2022-08-07T22:36:02.477Z,21.50
2022-08-07T22:38:47.859Z,21.46
2022-08-07T22:42:10.408Z,21.44
2022-08-07T22:44:25.095Z,21.43
2022-08-07T22:47:04.359Z,21.40
2022-08-07T22:49:54.098Z,21.33
2022-08-07T22:52:56.240Z,21.31
2022-08-07T22:55:33.982Z,21.28
2022-08-07T22:58:31.564Z,21.33
2022-08-07T23:01:06.324Z,21.22
2022-08-07T23:03:58.240Z,21.21
2022-08-07T23:06:56.262Z,21.21
2022-08-07T23:10:05.453Z,21.11
2022-08-07T23:12:53.193Z,20.98
2022-08-07T23:16:05.460Z,20.76
2022-08-07T23:18:42.506Z,20.67
2022-08-07T23:21:16.212Z,20.61
2022-08-07T23:24:04.219Z,20.61
2022-08-07T23:27:01.214Z,20.54
2022-08-07T23:30:35.524Z,20.60
2022-08-07T23:34:36.480Z,20.60
2022-08-07T23:36:17.331Z,20.54
2022-08-07T23:39:04.845Z,20.55
2022-08-07T23:42:04.527Z,20.49
2022-08-07T23:44:54.104Z,20.48
2022-08-07T23:48:01.688Z,20.37
2022-08-07T23:50:47.076Z,20.24
2022-08-07T23:53:49.942Z,20.13
2022-08-07T23:56:31.189Z,20.09
